createdAt,value
2017-10-26T00:00:39.831Z,14.4
2017-10-26T00:01:42.612Z,14.4
2017-10-26T00:02:45.036Z,14.4
2017-10-26T00:03:47.462Z,14.4
2017-10-26T00:04:49.901Z,14.5
2017-10-26T00:05:53.034Z,14.4
2017-10-26T00:06:55.465Z,14.4
2017-10-26T00:07:57.888Z,14.4
2017-10-26T00:09:00.315Z,14.4
2017-10-26T00:10:02.740Z,14.4
2017-10-26T00:11:05.170Z,14.4
2017-10-26T00:12:07.586Z,14.4
2017-10-26T00:13:10.024Z,14.4
2017-10-26T00:14:12.445Z,14.4
2017-10-26T00:15:14.869Z,14.4
2017-10-26T00:16:17.300Z,14.4
2017-10-26T00:17:19.721Z,14.4
2017-10-26T00:18:22.152Z,14.4
2017-10-26T00:19:24.942Z,14.4
2017-10-26T00:20:27.364Z,14.4
2017-10-26T00:21:29.785Z,14.4
2017-10-26T00:22:32.562Z,14.5
2017-10-26T00:23:34.984Z,14.4
2017-10-26T00:24:37.414Z,14.4
2017-10-26T00:25:39.846Z,14.5
2017-10-26T00:26:42.629Z,14.5
2017-10-26T00:27:45.063Z,14.5
2017-10-26T00:28:47.498Z,14.5
2017-10-26T00:29:49.907Z,14.5
2017-10-26T00:30:52.353Z,14.5
2017-10-26T00:31:54.780Z,14.5
2017-10-26T00:32:57.208Z,14.5
2017-10-26T00:33:59.629Z,14.5
2017-10-26T00:35:02.072Z,14.5
2017-10-26T00:36:04.501Z,14.5
2017-10-26T00:37:06.935Z,14.5
2017-10-26T00:38:09.346Z,14.6
2017-10-26T00:39:11.772Z,14.6
2017-10-26T00:40:14.206Z,14.6
2017-10-26T00:41:16.637Z,14.6
2017-10-26T00:42:19.061Z,14.6
2017-10-26T00:43:21.497Z,14.6
2017-10-26T00:44:23.920Z,14.6
2017-10-26T00:45:26.345Z,14.6
2017-10-26T00:46:28.772Z,14.7
2017-10-26T00:47:31.200Z,14.6
2017-10-26T00:48:33.625Z,14.7
2017-10-26T00:49:36.417Z,14.7
2017-10-26T00:50:38.842Z,14.7
2017-10-26T00:51:41.273Z,14.7
2017-10-26T00:52:43.698Z,14.7
2017-10-26T00:53:46.129Z,14.7
2017-10-26T00:54:48.917Z,14.7
2017-10-26T00:55:51.342Z,14.7
2017-10-26T00:56:53.778Z,14.7
2017-10-26T00:57:56.214Z,14.7
2017-10-26T00:58:58.643Z,14.8
2017-10-26T01:00:01.078Z,14.7
2017-10-26T01:01:03.500Z,14.7
2017-10-26T01:02:05.937Z,14.7
2017-10-26T01:03:08.716Z,14.7
2017-10-26T01:04:11.134Z,14.7
2017-10-26T01:05:13.934Z,14.7
2017-10-26T01:06:16.367Z,14.7
2017-10-26T01:07:18.796Z,14.7
2017-10-26T01:08:21.224Z,14.7
2017-10-26T01:09:23.640Z,14.7
2017-10-26T01:10:26.416Z,14.7
2017-10-26T01:11:28.861Z,14.7
2017-10-26T01:12:31.283Z,14.7
2017-10-26T01:13:34.088Z,14.7
2017-10-26T01:14:36.526Z,14.7
2017-10-26T01:15:39.302Z,14.7
2017-10-26T01:16:41.725Z,14.7
2017-10-26T01:17:44.149Z,14.7
2017-10-26T01:18:46.947Z,14.7
2017-10-26T01:19:49.714Z,14.7
2017-10-26T01:20:52.497Z,14.7
2017-10-26T01:21:54.939Z,14.7
2017-10-26T01:22:57.351Z,14.7
2017-10-26T01:24:00.143Z,14.7
2017-10-26T01:25:02.939Z,14.7
2017-10-26T01:26:05.355Z,14.7
2017-10-26T01:27:08.159Z,14.7
2017-10-26T01:28:10.582Z,14.7
2017-10-26T01:29:13.013Z,14.7
2017-10-26T01:30:15.442Z,14.7
2017-10-26T01:31:17.863Z,14.7
2017-10-26T01:32:20.290Z,14.7
2017-10-26T01:33:22.725Z,14.7
2017-10-26T01:34:25.145Z,14.7
2017-10-26T01:35:27.583Z,14.7
2017-10-26T01:36:30.014Z,14.7
2017-10-26T01:37:32.791Z,14.7
2017-10-26T01:38:35.225Z,14.7
2017-10-26T01:39:37.652Z,14.7
2017-10-26T01:40:40.075Z,14.7
2017-10-26T01:41:42.494Z,14.6
2017-10-26T01:42:44.930Z,14.7
2017-10-26T01:43:47.361Z,14.7
2017-10-26T01:44:49.785Z,14.6
2017-10-26T01:45:52.208Z,14.7
2017-10-26T01:46:54.629Z,14.6
2017-10-26T01:47:57.060Z,14.6
2017-10-26T01:48:59.493Z,14.6
2017-10-26T01:50:01.916Z,14.6
2017-10-26T01:51:04.346Z,14.5
2017-10-26T01:52:06.797Z,14.6
2017-10-26T01:53:09.233Z,14.6
2017-10-26T01:54:11.660Z,14.5
2017-10-26T01:55:14.084Z,14.6
2017-10-26T01:56:16.505Z,14.6
2017-10-26T01:57:18.930Z,14.6
2017-10-26T01:58:21.357Z,14.6
2017-10-26T01:59:23.775Z,14.6
2017-10-26T02:00:26.563Z,14.6
2017-10-26T02:01:28.997Z,14.7
2017-10-26T02:02:31.777Z,14.7
2017-10-26T02:03:34.203Z,14.7
2017-10-26T02:04:36.637Z,14.7
2017-10-26T02:05:39.061Z,14.7
2017-10-26T02:06:41.498Z,14.7
2017-10-26T02:07:43.927Z,14.7
2017-10-26T02:08:46.346Z,14.8
2017-10-26T02:09:48.774Z,14.7
2017-10-26T02:10:51.203Z,14.7
2017-10-26T02:11:53.631Z,14.7
2017-10-26T02:12:56.058Z,14.7
2017-10-26T02:13:58.483Z,14.7
2017-10-26T02:15:00.909Z,14.7
2017-10-26T02:16:03.350Z,14.7
2017-10-26T02:17:05.777Z,14.7
2017-10-26T02:18:08.200Z,14.7
2017-10-26T02:19:10.636Z,14.7
2017-10-26T02:20:13.069Z,14.7
2017-10-26T02:21:15.493Z,14.6
2017-10-26T02:22:17.922Z,14.6
2017-10-26T02:23:20.343Z,14.6
2017-10-26T02:24:23.153Z,14.6
2017-10-26T02:25:25.594Z,14.6
2017-10-26T02:26:28.014Z,14.6
2017-10-26T02:27:30.449Z,14.6
2017-10-26T02:28:32.861Z,14.6
2017-10-26T02:29:35.290Z,14.6
2017-10-26T02:30:37.730Z,14.6
2017-10-26T02:31:40.161Z,14.6
2017-10-26T02:32:42.577Z,14.6
2017-10-26T02:33:45.016Z,14.6
2017-10-26T02:34:48.162Z,14.5
2017-10-26T02:35:50.594Z,14.5
2017-10-26T02:36:53.027Z,14.5
2017-10-26T02:37:55.446Z,14.5
2017-10-26T02:38:57.876Z,14.5
2017-10-26T02:40:01.034Z,14.5
2017-10-26T02:41:03.462Z,14.5
2017-10-26T02:42:05.886Z,14.5
2017-10-26T02:43:08.321Z,14.5
2017-10-26T02:44:10.750Z,14.5
2017-10-26T02:45:13.175Z,14.4
2017-10-26T02:46:15.602Z,14.4
2017-10-26T02:47:18.025Z,14.4
2017-10-26T02:48:20.444Z,14.4
2017-10-26T02:49:22.875Z,14.4
2017-10-26T02:50:25.298Z,14.4
2017-10-26T02:51:27.718Z,14.3
2017-10-26T02:52:30.142Z,14.3
2017-10-26T02:53:32.574Z,14.3
2017-10-26T02:54:35.008Z,14.3
2017-10-26T02:55:37.436Z,14.3
2017-10-26T02:56:39.849Z,14.3
2017-10-26T02:57:42.640Z,14.3
2017-10-26T02:58:45.066Z,14.3
2017-10-26T02:59:47.494Z,14.3
2017-10-26T03:00:49.919Z,14.3
2017-10-26T03:01:52.345Z,14.3
2017-10-26T03:02:54.765Z,14.3
2017-10-26T03:03:57.203Z,14.3
2017-10-26T03:04:59.622Z,14.3
2017-10-26T03:06:02.409Z,14.3
2017-10-26T03:07:04.836Z,14.4
2017-10-26T03:08:07.269Z,14.4
2017-10-26T03:09:09.696Z,14.4
2017-10-26T03:10:12.116Z,14.4
2017-10-26T03:11:14.548Z,14.4
2017-10-26T03:12:16.975Z,14.4
2017-10-26T03:13:19.394Z,14.4
2017-10-26T03:14:21.831Z,14.4
2017-10-26T03:15:24.258Z,14.4
2017-10-26T03:16:26.689Z,14.4
2017-10-26T03:17:29.105Z,14.4
2017-10-26T03:18:31.538Z,14.4
2017-10-26T03:19:33.965Z,14.3
2017-10-26T03:20:36.389Z,14.4
2017-10-26T03:21:38.820Z,14.3
2017-10-26T03:22:41.243Z,14.3
2017-10-26T03:23:43.668Z,14.3
2017-10-26T03:24:46.112Z,14.3
2017-10-26T03:25:48.532Z,14.3
2017-10-26T03:26:51.318Z,14.3
2017-10-26T03:27:53.740Z,14.3
2017-10-26T03:28:56.177Z,14.3
2017-10-26T03:29:58.606Z,14.4
2017-10-26T03:31:01.039Z,14.4
2017-10-26T03:32:03.464Z,14.4
2017-10-26T03:33:05.897Z,14.4
2017-10-26T03:34:08.322Z,14.4
2017-10-26T03:35:10.748Z,14.4
2017-10-26T03:36:13.175Z,14.4
2017-10-26T03:37:15.600Z,14.4
2017-10-26T03:38:18.023Z,14.4
2017-10-26T03:39:20.458Z,14.4
2017-10-26T03:40:22.890Z,14.4
2017-10-26T03:41:25.317Z,14.4
2017-10-26T03:42:28.105Z,14.4
2017-10-26T03:43:30.538Z,14.4
2017-10-26T03:44:32.964Z,14.4
2017-10-26T03:45:35.400Z,14.4
2017-10-26T03:46:37.821Z,14.4
2017-10-26T03:47:40.244Z,14.4
2017-10-26T03:48:42.683Z,14.4
2017-10-26T03:49:45.111Z,14.4
2017-10-26T03:50:47.531Z,14.4
2017-10-26T03:51:49.955Z,14.4
2017-10-26T03:52:52.372Z,14.4
2017-10-26T03:53:54.798Z,14.4
2017-10-26T03:54:57.584Z,14.4
2017-10-26T03:56:00.005Z,14.4
2017-10-26T03:57:02.431Z,14.4
2017-10-26T03:58:04.864Z,14.4
2017-10-26T03:59:07.293Z,14.4
2017-10-26T04:00:09.730Z,14.3
2017-10-26T04:01:12.150Z,14.3
2017-10-26T04:02:14.574Z,14.3
2017-10-26T04:03:17.006Z,14.4
2017-10-26T04:04:19.438Z,14.3
2017-10-26T04:05:21.850Z,14.4
2017-10-26T04:06:24.276Z,14.3
2017-10-26T04:07:27.065Z,14.3
2017-10-26T04:08:29.490Z,14.3
2017-10-26T04:09:31.917Z,14.4
2017-10-26T04:10:34.361Z,14.4
2017-10-26T04:11:36.780Z,14.3
2017-10-26T04:12:39.202Z,14.4
2017-10-26T04:13:41.631Z,14.4
2017-10-26T04:14:44.041Z,14.4
2017-10-26T04:15:46.470Z,14.4
2017-10-26T04:16:48.901Z,14.4
2017-10-26T04:17:51.339Z,14.4
2017-10-26T04:18:53.768Z,14.4
2017-10-26T04:19:56.189Z,14.4
2017-10-26T04:20:58.612Z,14.4
2017-10-26T04:22:01.051Z,14.4
2017-10-26T04:23:03.476Z,14.4
2017-10-26T04:24:05.894Z,14.4
2017-10-26T04:25:08.326Z,14.4
2017-10-26T04:26:10.761Z,14.4
2017-10-26T04:27:13.190Z,14.4
2017-10-26T04:28:15.980Z,14.4
2017-10-26T04:29:18.395Z,14.4
2017-10-26T04:30:20.820Z,14.4
2017-10-26T04:31:23.257Z,14.5
2017-10-26T04:32:25.691Z,14.5
2017-10-26T04:33:28.461Z,14.4
2017-10-26T04:34:31.247Z,14.4
2017-10-26T04:35:33.669Z,14.5
2017-10-26T04:36:36.114Z,14.5
2017-10-26T04:37:38.546Z,14.5
2017-10-26T04:38:40.958Z,14.5
2017-10-26T04:39:43.385Z,14.5
2017-10-26T04:40:45.811Z,14.5
2017-10-26T04:41:48.246Z,14.5
2017-10-26T04:42:50.667Z,14.6
2017-10-26T04:43:53.098Z,14.6
2017-10-26T04:44:55.531Z,14.6
2017-10-26T04:45:57.950Z,14.6
2017-10-26T04:47:00.383Z,14.6
2017-10-26T04:48:03.177Z,14.6
2017-10-26T04:49:05.729Z,14.6
2017-10-26T04:50:08.212Z,14.6
2017-10-26T04:51:10.636Z,14.6
2017-10-26T04:52:13.416Z,14.5
2017-10-26T04:53:15.851Z,14.5
2017-10-26T04:54:18.282Z,14.5
2017-10-26T04:55:20.708Z,14.5
2017-10-26T04:56:23.144Z,14.5
2017-10-26T04:57:25.573Z,14.6
2017-10-26T04:58:28.004Z,14.5
2017-10-26T04:59:30.791Z,14.5
2017-10-26T05:00:33.211Z,14.5
2017-10-26T05:01:35.655Z,14.5
2017-10-26T05:02:38.078Z,14.5
2017-10-26T05:03:40.500Z,14.5
2017-10-26T05:04:43.287Z,14.5
2017-10-26T05:05:45.717Z,14.5
2017-10-26T05:06:48.151Z,14.6
2017-10-26T05:07:50.584Z,14.5
2017-10-26T05:08:53.012Z,14.6
2017-10-26T05:09:55.435Z,14.6
2017-10-26T05:10:57.861Z,14.6
2017-10-26T05:12:00.298Z,14.6
2017-10-26T05:13:02.738Z,14.6
2017-10-26T05:14:05.152Z,14.6
2017-10-26T05:15:07.657Z,14.6
2017-10-26T05:16:10.082Z,14.6
2017-10-26T05:17:12.512Z,14.6
2017-10-26T05:18:14.947Z,14.6
2017-10-26T05:19:17.374Z,14.6
2017-10-26T05:20:19.806Z,14.7
2017-10-26T05:21:22.242Z,14.7
2017-10-26T05:22:24.661Z,14.7
2017-10-26T05:23:27.084Z,14.7
2017-10-26T05:24:35.921Z,14.7
2017-10-26T05:25:44.424Z,14.6
2017-10-26T05:26:46.857Z,14.7
2017-10-26T05:27:49.283Z,14.7
2017-10-26T05:28:51.707Z,14.7
2017-10-26T05:29:54.405Z,14.7
2017-10-26T05:30:57.502Z,14.7
2017-10-26T05:31:59.927Z,14.7
2017-10-26T05:33:02.362Z,14.7
2017-10-26T05:34:04.780Z,14.7
2017-10-26T05:35:07.587Z,14.7
2017-10-26T05:36:10.021Z,14.7
2017-10-26T05:37:12.444Z,14.7
2017-10-26T05:38:14.865Z,14.7
2017-10-26T05:39:17.289Z,14.7
2017-10-26T05:40:19.728Z,14.7
2017-10-26T05:41:22.509Z,14.7
2017-10-26T05:42:24.935Z,14.7
2017-10-26T05:43:27.368Z,14.8
2017-10-26T05:44:29.801Z,14.8
2017-10-26T05:45:32.219Z,14.8
2017-10-26T05:46:34.663Z,14.8
2017-10-26T05:47:37.442Z,14.8
2017-10-26T05:48:39.871Z,14.8
2017-10-26T05:49:42.315Z,14.8
2017-10-26T05:50:44.725Z,14.8
2017-10-26T05:51:47.155Z,14.8
2017-10-26T05:52:49.590Z,14.8
2017-10-26T05:53:52.729Z,14.8
2017-10-26T05:54:55.162Z,14.8
2017-10-26T05:55:57.590Z,14.8
2017-10-26T05:57:00.013Z,14.8
2017-10-26T05:58:02.445Z,14.8
2017-10-26T05:59:04.882Z,14.8
2017-10-26T06:00:07.303Z,14.8
2017-10-26T06:01:09.746Z,14.8
2017-10-26T06:02:12.166Z,14.8
2017-10-26T06:03:14.589Z,14.8
2017-10-26T06:04:17.371Z,14.8
2017-10-26T06:05:19.802Z,14.8
2017-10-26T06:06:22.223Z,14.8
2017-10-26T06:07:24.660Z,14.8
2017-10-26T06:08:27.086Z,14.7
2017-10-26T06:09:29.503Z,14.8
2017-10-26T06:10:31.931Z,14.8
2017-10-26T06:11:34.369Z,14.7
2017-10-26T06:12:36.794Z,14.8
2017-10-26T06:13:39.579Z,14.8
2017-10-26T06:14:42.004Z,14.8
2017-10-26T06:15:44.428Z,14.8
2017-10-26T06:16:46.864Z,14.8
2017-10-26T06:17:49.290Z,14.8
2017-10-26T06:18:51.707Z,14.8
2017-10-26T06:19:54.134Z,14.8
2017-10-26T06:20:56.564Z,14.8
2017-10-26T06:21:58.992Z,14.7
2017-10-26T06:23:01.784Z,14.8
2017-10-26T06:24:04.216Z,14.8
2017-10-26T06:25:06.642Z,14.8
2017-10-26T06:26:09.076Z,14.8
2017-10-26T06:27:11.501Z,14.8
2017-10-26T06:28:13.924Z,14.8
2017-10-26T06:29:16.711Z,14.8
2017-10-26T06:30:19.146Z,14.8
2017-10-26T06:31:21.569Z,14.8
2017-10-26T06:32:23.998Z,14.8
2017-10-26T06:33:26.423Z,14.8
2017-10-26T06:34:28.854Z,14.9
2017-10-26T06:35:31.291Z,14.8
2017-10-26T06:36:33.721Z,14.9
2017-10-26T06:37:36.144Z,14.9
2017-10-26T06:38:38.574Z,14.9
2017-10-26T06:39:40.999Z,14.9
2017-10-26T06:40:43.419Z,14.9
2017-10-26T06:41:45.850Z,14.9
2017-10-26T06:42:48.278Z,14.9
2017-10-26T06:43:50.717Z,14.9
2017-10-26T06:44:53.144Z,14.9
2017-10-26T06:45:55.923Z,14.9
2017-10-26T06:46:58.347Z,14.9
2017-10-26T06:48:00.780Z,14.9
2017-10-26T06:49:03.207Z,14.9
2017-10-26T06:50:40.761Z,14.9
2017-10-26T06:51:43.139Z,14.9
2017-10-26T06:52:45.512Z,14.9
2017-10-26T06:53:47.900Z,14.9
2017-10-26T06:54:50.270Z,14.9
2017-10-26T06:55:52.643Z,15
2017-10-26T06:56:55.018Z,15
2017-10-26T06:57:57.740Z,15
2017-10-26T06:59:00.116Z,15
2017-10-26T07:00:02.500Z,15
2017-10-26T07:01:04.861Z,15
2017-10-26T07:02:07.598Z,15
2017-10-26T07:03:09.976Z,15
2017-10-26T07:04:12.343Z,15
2017-10-26T07:05:14.725Z,15
2017-10-26T07:06:17.101Z,15
2017-10-26T07:07:19.470Z,15
2017-10-26T07:08:21.844Z,15
2017-10-26T07:09:24.228Z,15
2017-10-26T07:10:26.598Z,15
2017-10-26T07:11:28.971Z,15
2017-10-26T07:12:31.344Z,15
2017-10-26T07:13:33.721Z,15
2017-10-26T07:14:36.441Z,15
2017-10-26T07:15:38.827Z,15.1
2017-10-26T07:16:41.194Z,15.1
2017-10-26T07:17:43.582Z,15.1
2017-10-26T07:18:45.960Z,15.1
2017-10-26T07:19:48.336Z,15.1
2017-10-26T07:20:51.089Z,15.1
2017-10-26T07:21:53.470Z,15.1
2017-10-26T07:22:55.838Z,15.2
2017-10-26T07:23:58.231Z,15.2
2017-10-26T07:25:00.954Z,15.1
2017-10-26T07:26:03.332Z,15.2
2017-10-26T07:27:05.701Z,15.2
2017-10-26T07:28:08.450Z,15.2
2017-10-26T07:29:10.828Z,15.2
2017-10-26T07:30:13.568Z,15.2
2017-10-26T07:31:15.935Z,15.3
2017-10-26T07:32:18.316Z,15.3
2017-10-26T07:33:20.690Z,15.3
2017-10-26T07:34:23.071Z,15.3
2017-10-26T07:35:25.444Z,15.3
2017-10-26T07:36:27.818Z,15.4
2017-10-26T07:37:30.196Z,15.4
2017-10-26T07:38:32.567Z,15.4
2017-10-26T07:39:34.937Z,15.4
2017-10-26T07:40:37.311Z,15.4
2017-10-26T07:41:39.687Z,15.4
2017-10-26T07:42:42.050Z,15.4
2017-10-26T07:43:44.778Z,15.4
2017-10-26T07:44:47.516Z,15.4
2017-10-26T07:45:49.884Z,15.4
2017-10-26T07:46:52.264Z,15.4
2017-10-26T07:47:54.634Z,15.4
2017-10-26T07:48:57.013Z,15.4
2017-10-26T07:49:59.749Z,15.5
2017-10-26T07:51:02.127Z,15.5
2017-10-26T07:52:04.499Z,15.5
2017-10-26T07:53:06.874Z,15.5
2017-10-26T07:54:09.257Z,15.5
2017-10-26T07:55:11.627Z,15.5
2017-10-26T07:56:14.004Z,15.5
2017-10-26T07:57:16.376Z,15.5
2017-10-26T07:58:18.752Z,15.6
2017-10-26T07:59:21.503Z,15.6
2017-10-26T08:00:23.870Z,15.6
2017-10-26T08:01:26.244Z,15.6
2017-10-26T08:02:28.620Z,15.6
2017-10-26T08:03:30.993Z,15.7
2017-10-26T08:04:33.369Z,15.7
2017-10-26T08:05:36.093Z,15.7
2017-10-26T08:06:38.462Z,15.7
2017-10-26T08:07:40.845Z,15.7
2017-10-26T08:08:43.216Z,15.7
2017-10-26T08:09:45.593Z,15.7
2017-10-26T08:10:47.966Z,15.7
2017-10-26T08:11:50.342Z,15.7
2017-10-26T08:12:52.710Z,15.8
2017-10-26T08:13:55.102Z,15.8
2017-10-26T08:14:57.466Z,15.8
2017-10-26T08:15:59.854Z,15.9
2017-10-26T08:17:02.236Z,15.9
2017-10-26T08:18:04.616Z,15.9
2017-10-26T08:19:06.985Z,15.9
2017-10-26T08:20:09.361Z,16
2017-10-26T08:21:12.072Z,16
2017-10-26T08:22:14.455Z,16
2017-10-26T08:23:16.819Z,16
2017-10-26T08:24:19.196Z,16
2017-10-26T08:25:21.578Z,16
2017-10-26T08:26:23.947Z,16
2017-10-26T08:27:26.317Z,16
2017-10-26T08:28:28.694Z,16
2017-10-26T08:29:31.069Z,16
2017-10-26T08:30:33.452Z,16
2017-10-26T08:31:35.830Z,16
2017-10-26T08:32:38.193Z,16
2017-10-26T08:33:40.572Z,16.1
2017-10-26T08:34:42.949Z,16
2017-10-26T08:35:45.337Z,16.1
2017-10-26T08:36:47.711Z,16.1
2017-10-26T08:37:50.457Z,16.1
2017-10-26T08:38:52.838Z,16.1
2017-10-26T08:39:55.197Z,16.1
2017-10-26T08:40:57.583Z,16.1
2017-10-26T08:41:59.962Z,16.1
2017-10-26T08:43:02.340Z,16.1
2017-10-26T08:44:04.719Z,16.1
2017-10-26T08:45:07.087Z,16.1
2017-10-26T08:46:09.462Z,16.1
2017-10-26T08:47:11.842Z,16.1
2017-10-26T08:48:14.212Z,16.1
2017-10-26T08:49:16.578Z,16.1
2017-10-26T08:50:19.309Z,16.1
2017-10-26T08:51:21.683Z,16.1
2017-10-26T08:52:24.054Z,16.2
2017-10-26T08:53:26.432Z,16.2
2017-10-26T08:54:28.807Z,16.1
2017-10-26T08:55:31.186Z,16.2
2017-10-26T08:56:33.573Z,16.2
2017-10-26T08:57:35.945Z,16.2
2017-10-26T08:58:38.328Z,16.2
2017-10-26T08:59:40.711Z,16.3
2017-10-26T09:00:43.084Z,16.3
2017-10-26T09:01:45.460Z,16.3
2017-10-26T09:02:47.840Z,16.3
2017-10-26T09:03:50.215Z,16.3
2017-10-26T09:04:52.594Z,16.4
2017-10-26T09:05:54.974Z,16.4
2017-10-26T09:06:57.354Z,16.4
2017-10-26T09:07:59.730Z,16.4
2017-10-26T09:09:02.106Z,16.5
2017-10-26T09:10:04.480Z,16.5
2017-10-26T09:11:06.846Z,16.6
2017-10-26T09:12:09.223Z,16.6
2017-10-26T09:13:11.606Z,16.6
2017-10-26T09:14:13.981Z,16.7
2017-10-26T09:15:16.703Z,16.7
2017-10-26T09:16:19.090Z,16.7
2017-10-26T09:17:21.455Z,16.8
2017-10-26T09:18:23.839Z,16.8
2017-10-26T09:19:26.217Z,16.8
2017-10-26T09:20:28.589Z,16.7
2017-10-26T09:21:30.971Z,16.7
2017-10-26T09:22:33.348Z,16.7
2017-10-26T09:23:35.722Z,16.8
2017-10-26T09:24:38.101Z,16.8
2017-10-26T09:25:40.480Z,16.8
2017-10-26T09:26:43.229Z,16.8
2017-10-26T09:27:45.605Z,16.8
2017-10-26T09:28:48.338Z,16.8
2017-10-26T09:29:50.714Z,16.8
2017-10-26T09:30:53.104Z,16.8
2017-10-26T09:31:55.816Z,16.8
2017-10-26T09:32:58.193Z,16.8
2017-10-26T09:34:00.928Z,16.9
2017-10-26T09:35:03.310Z,16.9
2017-10-26T09:36:05.685Z,16.9
2017-10-26T09:37:08.076Z,16.9
2017-10-26T09:38:10.457Z,16.9
2017-10-26T09:39:12.830Z,16.9
2017-10-26T09:40:15.206Z,17
2017-10-26T09:41:17.585Z,17
2017-10-26T09:42:19.961Z,17
2017-10-26T09:43:22.350Z,17
2017-10-26T09:44:25.074Z,17
2017-10-26T09:45:27.453Z,17.1
2017-10-26T09:46:29.831Z,17.1
2017-10-26T09:47:32.217Z,17.1
2017-10-26T09:48:34.588Z,17.2
2017-10-26T09:49:36.965Z,17.2
2017-10-26T09:50:39.346Z,17.2
2017-10-26T09:51:41.732Z,17.2
2017-10-26T09:52:44.112Z,17.2
2017-10-26T09:53:46.495Z,17.2
2017-10-26T09:54:48.869Z,17.3
2017-10-26T09:55:51.259Z,17.3
2017-10-26T09:56:53.634Z,17.3
2017-10-26T09:57:55.999Z,17.3
2017-10-26T09:58:58.385Z,17.3
2017-10-26T10:00:01.117Z,17.3
2017-10-26T10:01:03.693Z,17.3
2017-10-26T10:02:06.074Z,17.3
2017-10-26T10:03:08.442Z,17.3
2017-10-26T10:04:10.817Z,17.3
2017-10-26T10:05:13.213Z,17.3
2017-10-26T10:06:15.587Z,17.3
2017-10-26T10:07:17.959Z,17.3
2017-10-26T10:08:20.335Z,17.3
2017-10-26T10:09:23.070Z,17.3
2017-10-26T10:10:25.442Z,17.3
2017-10-26T10:11:27.816Z,17.3
2017-10-26T10:12:30.206Z,17.3
2017-10-26T10:13:32.945Z,17.3
2017-10-26T10:14:35.332Z,17.3
2017-10-26T10:15:37.708Z,17.3
2017-10-26T10:16:40.441Z,17.3
2017-10-26T10:17:42.823Z,17.2
2017-10-26T10:18:45.198Z,17.2
2017-10-26T10:19:47.566Z,17.2
2017-10-26T10:20:49.951Z,17.2
2017-10-26T10:21:52.322Z,17.2
2017-10-26T10:22:54.701Z,17.2
2017-10-26T10:23:57.464Z,17.2
2017-10-26T10:24:59.839Z,17.2
2017-10-26T10:26:02.217Z,17.2
2017-10-26T10:27:04.601Z,17.2
2017-10-26T10:28:06.978Z,17.2
2017-10-26T10:29:09.367Z,17.2
2017-10-26T10:30:11.746Z,17.2
2017-10-26T10:31:14.474Z,17.2
2017-10-26T10:32:16.854Z,17.2
2017-10-26T10:33:19.230Z,17.2
2017-10-26T10:34:21.605Z,17.2
2017-10-26T10:35:23.981Z,17.1
2017-10-26T10:36:26.357Z,17.2
2017-10-26T10:37:28.743Z,17.1
2017-10-26T10:38:31.107Z,17.1
2017-10-26T10:39:33.850Z,17.1
2017-10-26T10:40:36.230Z,17.2
2017-10-26T10:41:38.615Z,17.2
2017-10-26T10:42:40.993Z,17.2
2017-10-26T10:43:43.377Z,17.2
2017-10-26T10:44:45.748Z,17.2
2017-10-26T10:45:48.134Z,17.2
2017-10-26T10:46:50.516Z,17.2
2017-10-26T10:47:52.888Z,17.2
2017-10-26T10:48:55.623Z,17.2
2017-10-26T10:49:57.997Z,17.2
2017-10-26T10:51:00.373Z,17.2
2017-10-26T10:52:02.760Z,17.2
2017-10-26T10:53:05.125Z,17.2
2017-10-26T10:54:07.504Z,17.2
2017-10-26T10:55:09.886Z,17.2
2017-10-26T10:56:12.258Z,17.2
2017-10-26T10:57:14.632Z,17.2
2017-10-26T10:58:17.015Z,17.2
2017-10-26T10:59:19.736Z,17.2
2017-10-26T11:00:22.129Z,17.2
2017-10-26T11:01:24.508Z,17.3
2017-10-26T11:02:26.876Z,17.3
2017-10-26T11:03:29.610Z,17.3
2017-10-26T11:04:31.991Z,17.3
2017-10-26T11:05:34.370Z,17.3
2017-10-26T11:06:36.749Z,17.3
2017-10-26T11:07:39.490Z,17.3
2017-10-26T11:08:42.216Z,17.3
2017-10-26T11:09:44.584Z,17.4
2017-10-26T11:10:46.966Z,17.4
2017-10-26T11:11:49.353Z,17.4
2017-10-26T11:12:51.726Z,17.4
2017-10-26T11:13:54.109Z,17.4
2017-10-26T11:14:56.482Z,17.4
2017-10-26T11:15:58.858Z,17.4
2017-10-26T11:17:01.240Z,17.3
2017-10-26T11:18:03.611Z,17.3
2017-10-26T11:19:05.989Z,17.3
2017-10-26T11:20:08.368Z,17.3
2017-10-26T11:21:11.126Z,17.3
2017-10-26T11:22:13.504Z,17.4
2017-10-26T11:23:16.233Z,17.4
2017-10-26T11:24:18.601Z,17.4
2017-10-26T11:25:20.980Z,17.4
2017-10-26T11:26:23.359Z,17.5
2017-10-26T11:27:25.731Z,17.5
2017-10-26T11:28:28.115Z,17.5
2017-10-26T11:29:30.495Z,17.5
2017-10-26T11:30:32.877Z,17.5
2017-10-26T11:31:35.268Z,17.5
2017-10-26T11:32:37.640Z,17.6
2017-10-26T11:33:40.015Z,17.6
2017-10-26T11:34:42.387Z,17.6
2017-10-26T11:35:44.779Z,17.7
2017-10-26T11:36:47.161Z,17.7
2017-10-26T11:37:49.531Z,17.7
2017-10-26T11:38:51.917Z,17.8
2017-10-26T11:39:54.298Z,17.9
2017-10-26T11:40:57.025Z,17.9
2017-10-26T11:41:59.771Z,17.9
2017-10-26T11:43:02.141Z,17.9
2017-10-26T11:44:04.523Z,18
2017-10-26T11:45:07.312Z,18.1
2017-10-26T11:46:09.679Z,18.1
2017-10-26T11:47:12.055Z,18.1
2017-10-26T11:48:14.441Z,18.2
2017-10-26T11:49:16.817Z,18.2
2017-10-26T11:50:19.205Z,18.2
2017-10-26T11:51:21.618Z,18.3
2017-10-26T11:52:23.990Z,18.3
2017-10-26T11:53:26.374Z,18.3
2017-10-26T11:54:28.753Z,18.3
2017-10-26T11:55:31.485Z,18.4
2017-10-26T11:56:33.870Z,18.4
2017-10-26T11:57:36.242Z,18.4
2017-10-26T11:58:38.620Z,18.4
2017-10-26T11:59:41.010Z,18.4
2017-10-26T12:00:43.384Z,18.5
2017-10-26T12:01:46.109Z,18.5
2017-10-26T12:02:48.489Z,18.5
2017-10-26T12:03:50.865Z,18.6
2017-10-26T12:04:53.607Z,18.6
2017-10-26T12:05:55.989Z,18.6
2017-10-26T12:06:58.360Z,18.6
2017-10-26T12:08:00.739Z,18.6
2017-10-26T12:09:03.128Z,18.6
2017-10-26T12:10:05.513Z,18.6
2017-10-26T12:11:07.882Z,18.6
2017-10-26T12:12:10.613Z,18.6
2017-10-26T12:13:13.344Z,18.6
2017-10-26T12:14:15.724Z,18.6
2017-10-26T12:15:18.103Z,18.5
2017-10-26T12:16:20.474Z,18.5
2017-10-26T12:17:22.853Z,18.5
2017-10-26T12:18:25.248Z,18.5
2017-10-26T12:19:27.626Z,18.5
2017-10-26T12:20:30.004Z,18.5
2017-10-26T12:21:32.758Z,18.5
2017-10-26T12:22:35.492Z,18.4
2017-10-26T12:23:37.889Z,18.4
2017-10-26T12:24:40.266Z,18.4
2017-10-26T12:25:42.641Z,18.4
2017-10-26T12:26:45.021Z,18.4
2017-10-26T12:27:47.404Z,18.4
2017-10-26T12:28:49.782Z,18.4
2017-10-26T12:29:52.155Z,18.4
2017-10-26T12:30:54.523Z,18.4
2017-10-26T12:31:57.253Z,18.4
2017-10-26T12:32:59.675Z,18.4
2017-10-26T12:34:02.057Z,18.4
2017-10-26T12:35:04.430Z,18.4
2017-10-26T12:36:06.809Z,18.4
2017-10-26T12:37:09.195Z,18.4
2017-10-26T12:38:11.925Z,18.4
2017-10-26T12:39:14.298Z,18.5
2017-10-26T12:40:16.689Z,18.5
2017-10-26T12:41:19.059Z,18.5
2017-10-26T12:42:21.448Z,18.6
2017-10-26T12:43:23.827Z,18.6
2017-10-26T12:44:26.558Z,18.7
2017-10-26T12:45:28.933Z,18.7
2017-10-26T12:46:31.314Z,18.7
2017-10-26T12:47:33.690Z,18.7
2017-10-26T12:48:36.082Z,18.7
2017-10-26T12:49:38.461Z,18.7
2017-10-26T12:50:40.840Z,18.8
2017-10-26T12:51:43.584Z,18.8
2017-10-26T12:52:45.967Z,18.8
2017-10-26T12:53:48.354Z,18.8
2017-10-26T12:54:50.739Z,18.8
2017-10-26T12:55:53.114Z,18.8
2017-10-26T12:56:55.502Z,18.8
2017-10-26T12:57:57.874Z,18.7
2017-10-26T12:59:00.258Z,18.7
2017-10-26T13:00:02.644Z,18.7
2017-10-26T13:01:05.022Z,18.7
2017-10-26T13:02:07.404Z,18.7
2017-10-26T13:03:09.789Z,18.6
2017-10-26T13:04:12.170Z,18.6
2017-10-26T13:05:14.555Z,18.6
2017-10-26T13:06:16.926Z,18.6
2017-10-26T13:07:19.316Z,18.6
2017-10-26T13:08:21.693Z,18.6
2017-10-26T13:09:24.079Z,18.6
2017-10-26T13:10:26.453Z,18.6
2017-10-26T13:11:28.842Z,18.6
2017-10-26T13:12:31.224Z,18.6
2017-10-26T13:13:33.608Z,18.6
2017-10-26T13:14:36.333Z,18.6
2017-10-26T13:15:38.711Z,18.6
2017-10-26T13:16:41.086Z,18.5
2017-10-26T13:17:43.475Z,18.5
2017-10-26T13:18:45.858Z,18.5
2017-10-26T13:19:48.240Z,18.5
2017-10-26T13:20:50.980Z,18.5
2017-10-26T13:21:53.368Z,18.5
2017-10-26T13:22:55.750Z,18.5
2017-10-26T13:23:58.142Z,18.5
2017-10-26T13:25:00.520Z,18.5
2017-10-26T13:26:02.913Z,18.5
2017-10-26T13:27:05.287Z,18.5
2017-10-26T13:28:08.025Z,18.5
2017-10-26T13:29:10.746Z,18.6
2017-10-26T13:30:13.184Z,18.5
2017-10-26T13:31:15.560Z,18.5
2017-10-26T13:32:17.948Z,18.5
2017-10-26T13:33:20.328Z,18.5
2017-10-26T13:34:22.701Z,18.5
2017-10-26T13:35:25.084Z,18.5
2017-10-26T13:36:27.469Z,18.5
2017-10-26T13:37:29.847Z,18.5
2017-10-26T13:38:32.602Z,18.4
2017-10-26T13:39:34.986Z,18.4
2017-10-26T13:40:37.368Z,18.4
2017-10-26T13:41:39.756Z,18.4
2017-10-26T13:42:42.141Z,18.4
2017-10-26T13:43:44.515Z,18.4
2017-10-26T13:44:46.896Z,18.4
2017-10-26T13:45:49.280Z,18.4
2017-10-26T13:46:51.659Z,18.5
2017-10-26T13:47:54.742Z,18.5
2017-10-26T13:48:57.114Z,18.5
2017-10-26T13:49:59.492Z,18.5
2017-10-26T13:51:01.893Z,18.5
2017-10-26T13:52:04.258Z,18.5
2017-10-26T13:53:06.645Z,18.5
2017-10-26T13:54:09.029Z,18.5
2017-10-26T13:55:11.404Z,18.5